createdAt,value
2023-04-07T00:00:00.224Z,63.60
2023-04-07T00:02:29.030Z,63.70
2023-04-07T00:04:58.726Z,63.50
2023-04-07T00:07:27.498Z,63.50
2023-04-07T00:09:55.787Z,63.60
2023-04-07T00:12:24.429Z,63.60
2023-04-07T00:14:52.777Z,63.50
2023-04-07T00:17:21.437Z,63.60
2023-04-07T00:19:49.742Z,63.70
2023-04-07T00:22:18.399Z,63.60
2023-04-07T00:24:46.638Z,63.60
2023-04-07T00:27:15.677Z,63.50
2023-04-07T00:29:46.818Z,63.60
2023-04-07T00:32:15.737Z,63.60
2023-04-07T00:34:44.041Z,63.70
2023-04-07T00:37:12.729Z,63.60
2023-04-07T00:39:41.060Z,63.60
2023-04-07T00:42:09.774Z,63.70
2023-04-07T00:44:38.426Z,64.50
2023-04-07T00:47:07.095Z,63.70
2023-04-07T00:49:35.316Z,63.70
2023-04-07T00:52:04.910Z,63.70
2023-04-07T00:54:33.245Z,63.70
2023-04-07T00:57:01.977Z,63.80
2023-04-07T00:59:31.857Z,63.80
2023-04-07T01:02:27.626Z,63.80
2023-04-07T01:05:11.554Z,63.80
2023-04-07T01:08:14.252Z,63.90
2023-04-07T01:11:19.800Z,63.90
2023-04-07T01:13:53.499Z,63.90
2023-04-07T01:16:53.972Z,64.00
2023-04-07T01:19:53.694Z,64.20
2023-04-07T01:22:28.713Z,64.10
2023-04-07T01:25:30.863Z,64.20
2023-04-07T01:28:02.779Z,64.20
2023-04-07T01:30:38.493Z,64.20
2023-04-07T01:33:07.136Z,64.20
2023-04-07T01:35:36.243Z,64.30
2023-04-07T01:38:05.556Z,64.20
2023-04-07T01:40:35.456Z,64.30
2023-04-07T01:43:03.851Z,64.30
2023-04-07T01:45:32.784Z,64.30
2023-04-07T01:48:01.236Z,64.40
2023-04-07T01:50:30.164Z,64.40
2023-04-07T01:52:58.468Z,64.40
2023-04-07T01:55:27.229Z,64.50
2023-04-07T01:58:08.125Z,64.50
2023-04-07T02:00:39.201Z,64.60
2023-04-07T02:03:24.451Z,64.50
2023-04-07T02:05:56.734Z,64.60
2023-04-07T02:08:30.452Z,64.50
2023-04-07T02:11:01.173Z,64.60
2023-04-07T02:13:33.210Z,64.50
2023-04-07T02:16:02.915Z,64.60
2023-04-07T02:18:32.620Z,64.60
2023-04-07T02:21:01.587Z,64.60
2023-04-07T02:23:29.901Z,64.70
2023-04-07T02:25:58.948Z,64.70
2023-04-07T02:28:27.278Z,64.70
2023-04-07T02:30:56.226Z,64.70
2023-04-07T02:33:24.536Z,64.70
2023-04-07T02:35:53.191Z,64.60
2023-04-07T02:38:23.071Z,64.50
2023-04-07T02:40:51.665Z,64.60
2023-04-07T02:43:21.688Z,64.70
2023-04-07T02:45:53.362Z,64.60
2023-04-07T02:48:21.811Z,64.50
2023-04-07T02:50:50.445Z,64.40
2023-04-07T02:53:18.869Z,64.30
2023-04-07T02:55:47.511Z,64.40
2023-04-07T02:58:16.284Z,64.50
2023-04-07T03:00:49.081Z,65.20
2023-04-07T03:03:22.172Z,64.50
2023-04-07T03:06:14.644Z,64.60
2023-04-07T03:09:03.266Z,64.50
2023-04-07T03:11:32.040Z,64.40
2023-04-07T03:14:02.085Z,64.50
2023-04-07T03:16:32.698Z,64.60
2023-04-07T03:19:19.428Z,64.70
2023-04-07T03:21:51.536Z,64.70
2023-04-07T03:24:19.880Z,64.80
2023-04-07T03:26:48.924Z,64.90
2023-04-07T03:29:39.909Z,64.90
2023-04-07T03:32:11.947Z,65.00
2023-04-07T03:34:40.388Z,65.00
2023-04-07T03:37:08.987Z,65.00
2023-04-07T03:39:40.367Z,65.00
2023-04-07T03:42:22.888Z,65.10
2023-04-07T03:44:53.672Z,65.20
2023-04-07T03:47:22.987Z,65.10
2023-04-07T03:49:57.570Z,65.30
2023-04-07T03:52:26.416Z,65.20
2023-04-07T03:55:01.918Z,65.10
2023-04-07T03:57:33.998Z,65.20
2023-04-07T04:00:02.959Z,65.10
2023-04-07T04:02:44.998Z,65.20
2023-04-07T04:05:18.619Z,65.10
2023-04-07T04:07:47.630Z,65.10
2023-04-07T04:10:16.571Z,65.10
2023-04-07T04:12:49.812Z,65.20
2023-04-07T04:15:21.207Z,65.20
2023-04-07T04:17:51.446Z,65.20
2023-04-07T04:20:22.739Z,65.20
2023-04-07T04:22:52.950Z,65.20
2023-04-07T04:25:21.689Z,65.20
2023-04-07T04:27:54.576Z,65.30
2023-04-07T04:30:25.865Z,65.20
2023-04-07T04:32:58.747Z,65.30
2023-04-07T04:35:37.606Z,65.40
2023-04-07T04:38:16.913Z,65.40
2023-04-07T04:40:51.518Z,65.40
2023-04-07T04:43:25.620Z,65.50
2023-04-07T04:45:54.366Z,65.50
2023-04-07T04:48:27.487Z,65.60
2023-04-07T04:50:56.250Z,65.60
2023-04-07T04:53:24.820Z,65.60
2023-04-07T04:55:58.139Z,65.60
2023-04-07T04:58:40.565Z,65.70
2023-04-07T05:01:09.886Z,65.70
2023-04-07T05:03:43.914Z,65.60
2023-04-07T05:06:18.831Z,65.70
2023-04-07T05:08:50.006Z,65.80
2023-04-07T05:11:22.180Z,65.80
2023-04-07T05:13:54.050Z,65.80
2023-04-07T05:16:22.787Z,65.80
2023-04-07T05:18:51.995Z,65.80
2023-04-07T05:21:22.453Z,65.90
2023-04-07T05:23:54.368Z,65.90
2023-04-07T05:26:26.451Z,66.00
2023-04-07T05:28:56.187Z,66.90
2023-04-07T05:31:26.468Z,66.10
2023-04-07T05:33:58.501Z,66.20
2023-04-07T05:36:31.948Z,66.30
2023-04-07T05:39:00.582Z,66.30
2023-04-07T05:41:29.135Z,66.40
2023-04-07T05:43:58.228Z,66.40
2023-04-07T05:46:29.601Z,66.50
2023-04-07T05:49:04.638Z,66.60
2023-04-07T05:51:41.910Z,66.80
2023-04-07T05:54:14.037Z,66.90
2023-04-07T05:56:43.673Z,67.00
2023-04-07T05:59:12.320Z,67.20
2023-04-07T06:01:41.391Z,67.70
2023-04-07T06:04:12.618Z,67.80
2023-04-07T06:06:41.123Z,67.40
2023-04-07T06:09:09.855Z,67.50
2023-04-07T06:11:38.660Z,67.60
2023-04-07T06:14:07.341Z,67.60
2023-04-07T06:16:36.376Z,67.70
2023-04-07T06:19:07.404Z,67.80
2023-04-07T06:21:35.958Z,67.90
2023-04-07T06:24:07.699Z,67.80
2023-04-07T06:26:37.208Z,68.00
2023-04-07T06:29:06.243Z,68.00
2023-04-07T06:31:34.503Z,68.20
2023-04-07T06:34:03.158Z,68.50
2023-04-07T06:36:31.484Z,68.50
2023-04-07T06:39:00.130Z,68.50
2023-04-07T06:41:28.405Z,69.00
2023-04-07T06:43:57.342Z,70.40
2023-04-07T06:46:27.305Z,70.60
2023-04-07T06:48:56.428Z,70.40
2023-04-07T06:51:26.607Z,70.10
2023-04-07T06:53:55.515Z,69.70
2023-04-07T06:56:24.029Z,69.50
2023-04-07T06:58:52.702Z,69.10
2023-04-07T07:01:21.060Z,69.10
2023-04-07T07:03:49.995Z,68.80
2023-04-07T07:06:18.868Z,68.20
2023-04-07T07:08:47.459Z,67.90
2023-04-07T07:11:15.821Z,67.90
2023-04-07T07:13:45.506Z,67.50
2023-04-07T07:16:14.002Z,67.70
2023-04-07T07:18:42.591Z,66.90
2023-04-07T07:21:11.077Z,67.90
2023-04-07T07:23:39.673Z,67.90
2023-04-07T07:26:08.032Z,67.70
2023-04-07T07:28:36.925Z,67.60
2023-04-07T07:31:13.545Z,67.40
2023-04-07T07:33:44.460Z,67.40
2023-04-07T07:36:12.872Z,67.10
2023-04-07T07:38:41.602Z,67.20
2023-04-07T07:41:10.031Z,67.20
2023-04-07T07:43:38.671Z,67.00
2023-04-07T07:46:07.001Z,67.20
2023-04-07T07:48:35.651Z,67.20
2023-04-07T07:51:04.378Z,67.30
2023-04-07T07:53:33.004Z,67.30
2023-04-07T07:56:02.028Z,67.00
2023-04-07T07:58:30.894Z,67.00
2023-04-07T08:00:59.167Z,67.10
2023-04-07T08:03:28.195Z,66.90
2023-04-07T08:05:56.602Z,67.00
2023-04-07T08:08:25.238Z,67.10
2023-04-07T08:10:53.635Z,66.90
2023-04-07T08:13:22.216Z,67.00
2023-04-07T08:15:50.988Z,67.00
2023-04-07T08:18:19.804Z,67.00
2023-04-07T08:20:48.011Z,67.00
2023-04-07T08:23:16.657Z,66.80
2023-04-07T08:25:44.976Z,66.80
2023-04-07T08:28:13.577Z,66.50
2023-04-07T08:30:41.825Z,66.60
2023-04-07T08:33:10.637Z,66.30
2023-04-07T08:35:38.927Z,66.00
2023-04-07T08:38:09.240Z,66.00
2023-04-07T08:40:37.618Z,66.00
2023-04-07T08:43:09.622Z,65.70
2023-04-07T08:45:42.322Z,65.80
2023-04-07T08:48:18.117Z,65.70
2023-04-07T08:50:46.526Z,65.80
2023-04-07T08:53:15.094Z,65.80
2023-04-07T08:55:43.509Z,65.70
2023-04-07T08:58:15.234Z,65.70
2023-04-07T09:00:46.253Z,65.70
2023-04-07T09:03:17.055Z,65.80
2023-04-07T09:05:46.631Z,65.80
2023-04-07T09:08:15.462Z,65.80
2023-04-07T09:10:43.968Z,65.50
2023-04-07T09:13:12.714Z,65.70
2023-04-07T09:15:41.613Z,65.50
2023-04-07T09:18:10.264Z,65.60
2023-04-07T09:21:01.840Z,65.60
2023-04-07T09:23:41.302Z,65.50
2023-04-07T09:26:20.643Z,65.50
2023-04-07T09:28:55.882Z,65.50
2023-04-07T09:31:27.292Z,65.50
2023-04-07T09:33:56.031Z,65.30
2023-04-07T09:36:27.260Z,65.30
2023-04-07T09:38:55.792Z,65.40
2023-04-07T09:41:24.147Z,65.50
2023-04-07T09:43:57.260Z,65.60
2023-04-07T09:46:26.361Z,65.80
2023-04-07T09:49:05.470Z,65.80
2023-04-07T09:51:36.507Z,65.90
2023-04-07T09:54:05.156Z,66.00
2023-04-07T09:56:33.433Z,66.00
2023-04-07T09:59:02.100Z,66.20
2023-04-07T10:01:30.503Z,66.30
2023-04-07T10:03:59.251Z,66.40
2023-04-07T10:06:27.869Z,66.30
2023-04-07T10:08:56.847Z,66.30
2023-04-07T10:11:25.115Z,66.40
2023-04-07T10:13:53.987Z,66.40
2023-04-07T10:16:22.797Z,66.40
2023-04-07T10:18:51.965Z,66.40
2023-04-07T10:21:20.557Z,66.40
2023-04-07T10:24:20.184Z,66.50
2023-04-07T10:26:55.047Z,66.60
2023-04-07T10:29:24.327Z,66.50
2023-04-07T10:31:52.969Z,66.50
2023-04-07T10:34:55.944Z,66.50
2023-04-07T10:37:24.967Z,66.30
2023-04-07T10:40:19.585Z,65.70
2023-04-07T10:42:48.088Z,65.60
2023-04-07T10:45:16.689Z,64.10
2023-04-07T10:48:11.520Z,65.40
2023-04-07T10:50:40.369Z,65.20
2023-04-07T10:53:16.384Z,65.40
2023-04-07T10:55:46.303Z,65.80
2023-04-07T10:58:31.006Z,66.90
2023-04-07T11:01:15.156Z,67.60
2023-04-07T11:03:57.834Z,67.40
2023-04-07T11:06:27.714Z,68.00
2023-04-07T11:08:56.326Z,69.00
2023-04-07T11:11:39.649Z,69.60
2023-04-07T11:14:07.949Z,70.10
2023-04-07T11:16:39.290Z,70.80
2023-04-07T11:19:07.709Z,70.20
2023-04-07T11:21:37.178Z,71.00
2023-04-07T11:24:05.909Z,71.90
2023-04-07T11:26:41.724Z,72.00
2023-04-07T11:29:12.323Z,72.60
2023-04-07T11:31:41.150Z,72.60
2023-04-07T11:34:09.766Z,72.40
2023-04-07T11:36:42.022Z,72.80
2023-04-07T11:39:23.163Z,72.80
2023-04-07T11:41:52.046Z,72.80
2023-04-07T11:44:20.634Z,72.50
2023-04-07T11:46:59.989Z,72.50
2023-04-07T11:49:29.005Z,72.40
2023-04-07T11:52:07.356Z,72.00
2023-04-07T11:54:50.155Z,71.80
2023-04-07T11:57:28.938Z,71.70
2023-04-07T12:00:08.980Z,71.60
2023-04-07T12:02:37.633Z,71.40
2023-04-07T12:05:07.377Z,71.50
2023-04-07T12:07:36.659Z,71.60
2023-04-07T12:10:22.042Z,71.70
2023-04-07T12:12:50.303Z,71.70
2023-04-07T12:15:19.099Z,71.80
2023-04-07T12:17:48.419Z,72.00
2023-04-07T12:20:17.302Z,71.90
2023-04-07T12:22:45.631Z,72.00
2023-04-07T12:25:14.335Z,72.00
2023-04-07T12:27:43.940Z,72.10
2023-04-07T12:30:13.565Z,72.20
2023-04-07T12:32:42.040Z,72.10
2023-04-07T12:35:10.782Z,72.10
2023-04-07T12:37:39.041Z,71.90
2023-04-07T12:40:08.549Z,72.50
2023-04-07T12:42:36.891Z,71.60
2023-04-07T12:45:06.481Z,71.50
2023-04-07T12:47:35.026Z,71.30
2023-04-07T12:50:04.009Z,71.10
2023-04-07T12:52:33.082Z,70.90
2023-04-07T12:55:02.021Z,70.70
2023-04-07T12:57:30.272Z,70.50
2023-04-07T12:59:59.079Z,70.50
2023-04-07T13:02:27.674Z,70.30
2023-04-07T13:04:56.879Z,70.00
2023-04-07T13:07:25.254Z,70.00
2023-04-07T13:09:54.887Z,69.90
2023-04-07T13:12:24.076Z,70.00
2023-04-07T13:14:59.612Z,69.90
2023-04-07T13:17:30.007Z,69.80
2023-04-07T13:19:59.210Z,69.20
2023-04-07T13:22:27.857Z,69.60
2023-04-07T13:24:56.503Z,69.60
2023-04-07T13:27:24.889Z,70.40
2023-04-07T13:29:53.763Z,69.70
2023-04-07T13:32:22.142Z,69.60
2023-04-07T13:34:51.221Z,70.00
2023-04-07T13:37:19.802Z,70.20
2023-04-07T13:39:48.801Z,70.90
2023-04-07T13:42:17.817Z,71.10
2023-04-07T13:44:47.677Z,71.60
2023-04-07T13:47:19.712Z,71.50
2023-04-07T13:49:48.990Z,71.30
2023-04-07T13:52:17.968Z,71.50
2023-04-07T13:54:46.809Z,71.50
2023-04-07T13:57:20.966Z,71.70
2023-04-07T13:59:52.503Z,71.70
2023-04-07T14:02:21.390Z,71.80
2023-04-07T14:04:50.510Z,71.60
2023-04-07T14:07:18.841Z,71.70
2023-04-07T14:09:48.380Z,71.70
2023-04-07T14:12:16.679Z,71.80
2023-04-07T14:14:45.524Z,71.70
2023-04-07T14:17:13.768Z,71.80
2023-04-07T14:19:42.586Z,71.60
2023-04-07T14:22:11.186Z,71.60
2023-04-07T14:24:39.878Z,71.50
2023-04-07T14:27:08.136Z,71.50
2023-04-07T14:29:36.754Z,71.30
2023-04-07T14:32:05.239Z,71.30
2023-04-07T14:34:33.875Z,71.30
2023-04-07T14:37:02.374Z,71.40
2023-04-07T14:39:31.144Z,71.30
2023-04-07T14:42:00.850Z,71.10
2023-04-07T14:44:29.674Z,71.10
2023-04-07T14:46:58.128Z,71.00
2023-04-07T14:49:28.886Z,71.10
2023-04-07T14:51:57.339Z,70.90
2023-04-07T14:54:26.199Z,70.90
2023-04-07T14:56:54.497Z,70.80
2023-04-07T14:59:23.143Z,70.90
2023-04-07T15:01:51.961Z,70.70
2023-04-07T15:04:20.840Z,70.70
2023-04-07T15:06:49.389Z,70.60
2023-04-07T15:09:19.630Z,70.40
2023-04-07T15:11:48.099Z,70.30
2023-04-07T15:14:16.738Z,70.20
2023-04-07T15:16:47.575Z,70.30
2023-04-07T15:19:16.812Z,70.00
2023-04-07T15:21:45.289Z,70.10
2023-04-07T15:24:15.850Z,70.20
2023-04-07T15:26:44.664Z,70.30
2023-04-07T15:29:13.361Z,70.20
2023-04-07T15:31:41.770Z,69.90
2023-04-07T15:34:10.480Z,70.00
2023-04-07T15:36:38.839Z,69.90
2023-04-07T15:39:07.566Z,69.40
2023-04-07T15:41:35.991Z,69.00
2023-04-07T15:44:04.711Z,69.50
2023-04-07T15:46:33.075Z,69.50
2023-04-07T15:49:01.832Z,69.80
2023-04-07T15:51:30.222Z,69.80
2023-04-07T15:54:00.382Z,69.80
2023-04-07T15:56:28.747Z,69.70
2023-04-07T15:58:57.414Z,69.80
2023-04-07T16:01:26.011Z,69.70
2023-04-07T16:03:54.875Z,69.80
2023-04-07T16:06:23.636Z,69.70
2023-04-07T16:08:52.269Z,70.00
2023-04-07T16:11:21.527Z,70.10
2023-04-07T16:13:50.736Z,70.10
2023-04-07T16:16:19.327Z,70.30
2023-04-07T16:18:48.267Z,70.40
2023-04-07T16:21:16.765Z,70.50
2023-04-07T16:23:45.373Z,70.40
2023-04-07T16:26:13.634Z,70.50
2023-04-07T16:28:44.322Z,70.60
2023-04-07T16:31:12.617Z,70.60
2023-04-07T16:33:42.240Z,70.70
2023-04-07T16:36:10.671Z,71.10
2023-04-07T16:38:39.283Z,71.40
2023-04-07T16:41:10.720Z,71.40
2023-04-07T16:43:39.269Z,71.40
2023-04-07T16:46:07.777Z,71.50
2023-04-07T16:48:36.614Z,71.30
2023-04-07T16:51:05.131Z,71.40
2023-04-07T16:53:33.825Z,71.40
2023-04-07T16:56:02.260Z,71.30
2023-04-07T16:58:32.310Z,71.10
2023-04-07T17:01:00.653Z,71.00
2023-04-07T17:03:29.494Z,70.90
2023-04-07T17:05:57.918Z,70.90
2023-04-07T17:08:26.614Z,70.80
2023-04-07T17:10:55.012Z,70.90
2023-04-07T17:13:23.876Z,70.90
2023-04-07T17:15:53.990Z,70.70
2023-04-07T17:18:22.641Z,70.50
2023-04-07T17:20:52.026Z,70.50
2023-04-07T17:23:20.829Z,70.40
2023-04-07T17:25:52.413Z,70.30
2023-04-07T17:28:21.305Z,70.20
2023-04-07T17:30:49.734Z,70.10
2023-04-07T17:33:18.525Z,69.90
2023-04-07T17:35:50.046Z,69.90
2023-04-07T17:38:18.767Z,69.70
2023-04-07T17:40:47.158Z,69.50
2023-04-07T17:43:15.944Z,69.60
2023-04-07T17:45:44.416Z,69.60
2023-04-07T17:48:13.264Z,69.10
2023-04-07T17:50:43.680Z,69.00
2023-04-07T17:53:12.348Z,69.10
2023-04-07T17:55:43.624Z,69.10
2023-04-07T17:58:12.701Z,69.30
2023-04-07T18:00:41.457Z,69.10
2023-04-07T18:03:12.050Z,69.20
2023-04-07T18:05:45.115Z,69.30
2023-04-07T18:08:15.247Z,69.20
2023-04-07T18:10:43.784Z,69.30
2023-04-07T18:13:12.899Z,69.40
2023-04-07T18:15:41.600Z,69.50
2023-04-07T18:18:10.246Z,69.50
2023-04-07T18:20:38.727Z,69.60
2023-04-07T18:23:08.345Z,69.60
2023-04-07T18:25:36.854Z,69.60
2023-04-07T18:28:06.291Z,69.70
2023-04-07T18:30:34.857Z,69.70
2023-04-07T18:33:03.665Z,69.70
2023-04-07T18:35:32.258Z,69.80
2023-04-07T18:38:04.667Z,69.70
2023-04-07T18:40:33.605Z,69.80
2023-04-07T18:43:02.710Z,69.80
2023-04-07T18:45:31.860Z,70.50
2023-04-07T18:48:00.593Z,69.70
2023-04-07T18:50:29.198Z,69.90
2023-04-07T18:52:58.846Z,69.90
2023-04-07T18:55:27.301Z,69.90
2023-04-07T18:57:55.857Z,70.40
2023-04-07T19:00:24.357Z,70.00
2023-04-07T19:02:53.103Z,69.80
2023-04-07T19:05:23.793Z,70.50
2023-04-07T19:07:54.322Z,70.20
2023-04-07T19:10:22.753Z,70.10
2023-04-07T19:12:51.987Z,70.00
2023-04-07T19:15:20.838Z,70.10
2023-04-07T19:17:49.821Z,70.10
2023-04-07T19:20:18.379Z,70.00
2023-04-07T19:22:46.988Z,70.10
2023-04-07T19:25:15.787Z,70.10
2023-04-07T19:27:44.871Z,70.20
2023-04-07T19:30:13.458Z,70.40
2023-04-07T19:32:44.187Z,70.60
2023-04-07T19:35:12.646Z,70.50
2023-04-07T19:37:41.338Z,70.50
2023-04-07T19:40:10.253Z,70.40
2023-04-07T19:42:42.272Z,70.50
2023-04-07T19:45:11.658Z,70.60
2023-04-07T19:47:41.687Z,70.60
2023-04-07T19:50:12.166Z,70.70
2023-04-07T19:52:43.678Z,70.70
2023-04-07T19:55:13.407Z,70.70
2023-04-07T19:57:42.224Z,70.80
2023-04-07T20:00:11.815Z,70.80
2023-04-07T20:02:50.457Z,71.70
2023-04-07T20:05:19.927Z,70.90
2023-04-07T20:07:48.820Z,71.00
2023-04-07T20:10:17.188Z,71.10
2023-04-07T20:12:46.070Z,71.10
2023-04-07T20:15:14.600Z,71.20
2023-04-07T20:17:43.681Z,71.30
2023-04-07T20:20:13.133Z,71.30
2023-04-07T20:22:41.815Z,71.40
2023-04-07T20:25:10.490Z,71.60
2023-04-07T20:27:40.132Z,72.00
2023-04-07T20:30:09.287Z,71.80
2023-04-07T20:32:39.352Z,71.80
2023-04-07T20:35:08.724Z,72.00
2023-04-07T20:37:37.342Z,72.00
2023-04-07T20:40:07.210Z,72.00
2023-04-07T20:42:35.932Z,72.10
2023-04-07T20:45:05.155Z,71.90
2023-04-07T20:47:36.219Z,72.20
2023-04-07T20:50:05.085Z,72.20
2023-04-07T20:52:35.801Z,72.30
2023-04-07T20:55:04.554Z,72.30
2023-04-07T20:57:33.384Z,72.40
2023-04-07T21:00:02.609Z,72.60
2023-04-07T21:02:31.350Z,72.50
2023-04-07T21:05:00.007Z,72.60
2023-04-07T21:07:28.634Z,72.70
2023-04-07T21:09:57.068Z,72.80
2023-04-07T21:12:25.755Z,72.90
2023-04-07T21:14:54.080Z,72.90
2023-04-07T21:17:22.853Z,73.00
2023-04-07T21:19:51.278Z,73.10
2023-04-07T21:22:19.951Z,73.10
2023-04-07T21:24:48.443Z,73.20
2023-04-07T21:27:17.845Z,73.30
2023-04-07T21:29:46.534Z,73.40
2023-04-07T21:32:15.516Z,73.40
2023-04-07T21:34:43.884Z,73.50
2023-04-07T21:37:12.491Z,73.50
2023-04-07T21:39:40.947Z,73.60
2023-04-07T21:42:09.582Z,73.70
2023-04-07T21:44:38.042Z,73.70
2023-04-07T21:47:06.799Z,74.60
2023-04-07T21:49:36.275Z,73.80
2023-04-07T21:52:07.902Z,73.80
2023-04-07T21:54:36.696Z,73.80
2023-04-07T21:57:05.847Z,73.80
2023-04-07T21:59:35.633Z,73.70
2023-04-07T22:02:04.806Z,73.90
2023-04-07T22:04:33.394Z,73.90
2023-04-07T22:07:02.951Z,73.90
2023-04-07T22:09:31.302Z,73.90
2023-04-07T22:11:59.963Z,74.00
2023-04-07T22:14:28.302Z,74.10
2023-04-07T22:16:56.927Z,74.00
2023-04-07T22:19:25.775Z,74.10
2023-04-07T22:21:54.638Z,74.00
2023-04-07T22:24:23.026Z,74.10
2023-04-07T22:26:54.047Z,74.00
2023-04-07T22:29:22.491Z,74.10
2023-04-07T22:31:51.334Z,74.00
2023-04-07T22:34:19.872Z,74.10
2023-04-07T22:36:48.562Z,74.10
2023-04-07T22:39:17.136Z,74.30
2023-04-07T22:41:45.826Z,74.10
2023-04-07T22:44:14.160Z,74.20
2023-04-07T22:46:42.986Z,74.20
2023-04-07T22:49:11.698Z,74.20
2023-04-07T22:51:41.237Z,74.20
2023-04-07T22:54:09.557Z,74.30
2023-04-07T22:56:38.191Z,74.20
2023-04-07T22:59:07.157Z,74.20
2023-04-07T23:01:36.011Z,74.30
2023-04-07T23:04:04.429Z,74.30
2023-04-07T23:06:33.615Z,74.30
2023-04-07T23:09:02.066Z,74.30
2023-04-07T23:11:31.006Z,74.40
2023-04-07T23:13:59.377Z,74.30
2023-04-07T23:16:28.019Z,74.30
2023-04-07T23:18:56.607Z,74.40
2023-04-07T23:21:26.470Z,74.30
2023-04-07T23:23:54.847Z,74.20
2023-04-07T23:26:23.547Z,74.20
2023-04-07T23:28:51.994Z,74.30
2023-04-07T23:31:20.956Z,74.20
2023-04-07T23:33:49.298Z,74.30
2023-04-07T23:36:17.957Z,74.20
2023-04-07T23:38:46.278Z,74.20
2023-04-07T23:41:14.825Z,74.20
2023-04-07T23:43:43.234Z,74.30
2023-04-07T23:46:11.913Z,74.20
2023-04-07T23:48:40.250Z,74.20
2023-04-07T23:51:08.870Z,74.20
2023-04-07T23:53:37.181Z,74.20
2023-04-07T23:56:06.309Z,74.20
2023-04-07T23:58:34.588Z,74.30
